sensor_id;sensor_type;location;lat;lon;timestamp;pressure;altitude;pressure_sealevel;temperature;humidity
49583;BME280;36329;48.816;44.624;2022-09-01T00:01:00;100349;;;25.1;43.3
49583;BME280;36329;48.816;44.624;2022-09-01T00:04:02;100351;;;25.1;42.6
49583;BME280;36329;48.816;44.624;2022-09-01T00:07:05;100349;;;25.1;43.1
49583;BME280;36329;48.816;44.624;2022-09-01T00:10:08;100354;;;25.1;42.2
49583;BME280;36329;48.816;44.624;2022-09-01T00:13:09;100359;;;25;42.7
49583;BME280;36329;48.816;44.624;2022-09-01T00:16:11;100354;;;24.9;43.4
49583;BME280;36329;48.816;44.624;2022-09-01T00:19:13;100361;;;24.9;43.7
49583;BME280;36329;48.816;44.624;2022-09-01T00:22:15;100378;;;24.9;42.8
49583;BME280;36329;48.816;44.624;2022-09-01T00:25:18;100390;;;24.8;43.5
49583;BME280;36329;48.816;44.624;2022-09-01T00:28:20;100385;;;25;43.7
49583;BME280;36329;48.816;44.624;2022-09-01T00:31:23;100377;;;25.2;42.5
49583;BME280;36329;48.816;44.624;2022-09-01T00:34:24;100371;;;25.2;41.7
49583;BME280;36329;48.816;44.624;2022-09-01T00:37:26;100371;;;24.9;41.9
49583;BME280;36329;48.816;44.624;2022-09-01T00:40:28;100379;;;24.8;42.1
49583;BME280;36329;48.816;44.624;2022-09-01T00:43:37;100398;;;24.9;42.2
49583;BME280;36329;48.816;44.624;2022-09-01T00:46:43;100393;;;25.1;41.7
49583;BME280;36329;48.816;44.624;2022-09-01T00:49:47;100382;;;25.3;42
49583;BME280;36329;48.816;44.624;2022-09-01T00:52:52;100382;;;25.1;41.8
49583;BME280;36329;48.816;44.624;2022-09-01T00:55:55;100380;;;25;42.3
49583;BME280;36329;48.816;44.624;2022-09-01T00:58:58;100386;;;24.5;43.3
49583;BME280;36329;48.816;44.624;2022-09-01T01:02:00;100385;;;24.5;43.8
49583;BME280;36329;48.816;44.624;2022-09-01T01:05:02;100380;;;24.5;44.1
49583;BME280;36329;48.816;44.624;2022-09-01T01:08:05;100382;;;24.5;43.9
49583;BME280;36329;48.816;44.624;2022-09-01T01:11:11;100375;;;24.4;44.5
49583;BME280;36329;48.816;44.624;2022-09-01T01:14:14;100374;;;24.5;44.6
49583;BME280;36329;48.816;44.624;2022-09-01T01:17:17;100376;;;24.7;44.3
49583;BME280;36329;48.816;44.624;2022-09-01T01:20:21;100372;;;24.8;44.3
49583;BME280;36329;48.816;44.624;2022-09-01T01:23:30;100375;;;24.7;44.3
49583;BME280;36329;48.816;44.624;2022-09-01T01:26:35;100376;;;24.7;44.4
49583;BME280;36329;48.816;44.624;2022-09-01T01:29:37;100381;;;24.7;44.4
49583;BME280;36329;48.816;44.624;2022-09-01T01:32:39;100376;;;24.7;44.4
49583;BME280;36329;48.816;44.624;2022-09-01T01:35:41;100374;;;24.9;44.3
49583;BME280;36329;48.816;44.624;2022-09-01T01:38:44;100377;;;24.9;44.3
49583;BME280;36329;48.816;44.624;2022-09-01T01:41:47;100375;;;24.8;44.5
49583;BME280;36329;48.816;44.624;2022-09-01T01:44:49;100376;;;24.9;44.5
49583;BME280;36329;48.816;44.624;2022-09-01T01:47:52;100377;;;24.8;44.7
49583;BME280;36329;48.816;44.624;2022-09-01T01:50:55;100382;;;24.8;45.1
49583;BME280;36329;48.816;44.624;2022-09-01T01:53:56;100381;;;24.8;45.2
49583;BME280;36329;48.816;44.624;2022-09-01T01:56:58;100388;;;24.8;45.2
49583;BME280;36329;48.816;44.624;2022-09-01T02:00:00;100384;;;24.8;45.6
49583;BME280;36329;48.816;44.624;2022-09-01T02:03:02;100382;;;24.8;45.7
49583;BME280;36329;48.816;44.624;2022-09-01T02:06:05;100385;;;24.7;46
49583;BME280;36329;48.816;44.624;2022-09-01T02:09:07;100389;;;24.7;46.1
49583;BME280;36329;48.816;44.624;2022-09-01T02:12:09;100391;;;24.6;46.5
49583;BME280;36329;48.816;44.624;2022-09-01T02:15:10;100397;;;24.6;46.7
49583;BME280;36329;48.816;44.624;2022-09-01T02:18:16;100399;;;24.5;47.1
49583;BME280;36329;48.816;44.624;2022-09-01T02:21:22;100404;;;24.6;47
49583;BME280;36329;48.816;44.624;2022-09-01T02:24:24;100412;;;24.6;46.9
49583;BME280;36329;48.816;44.624;2022-09-01T02:27:26;100413;;;24.6;47
49583;BME280;36329;48.816;44.624;2022-09-01T02:30:27;100421;;;24.6;47.1
49583;BME280;36329;48.816;44.624;2022-09-01T02:33:30;100420;;;24.6;47
49583;BME280;36329;48.816;44.624;2022-09-01T02:36:32;100428;;;24.7;46.9
49583;BME280;36329;48.816;44.624;2022-09-01T02:39:33;100430;;;24.6;46.9
49583;BME280;36329;48.816;44.624;2022-09-01T02:42:36;100426;;;24.7;46.7
49583;BME280;36329;48.816;44.624;2022-09-01T02:45:38;100425;;;24.7;46.6
49583;BME280;36329;48.816;44.624;2022-09-01T02:48:43;100433;;;24.5;46.8
49583;BME280;36329;48.816;44.624;2022-09-01T02:51:47;100442;;;24.6;46.8
49583;BME280;36329;48.816;44.624;2022-09-01T02:54:49;100457;;;24.5;46.3
49583;BME280;36329;48.816;44.624;2022-09-01T02:57:50;100450;;;24.4;47
49583;BME280;36329;48.816;44.624;2022-09-01T03:00:54;100442;;;24.5;46.7
49583;BME280;36329;48.816;44.624;2022-09-01T03:03:58;100434;;;24.7;46.2
49583;BME280;36329;48.816;44.624;2022-09-01T03:07:01;100431;;;24.8;46.2
49583;BME280;36329;48.816;44.624;2022-09-01T03:10:03;100429;;;24.9;45.6
49583;BME280;36329;48.816;44.624;2022-09-01T03:13:11;100434;;;24.9;45.6
49583;BME280;36329;48.816;44.624;2022-09-01T03:16:14;100433;;;24.8;45.9
49583;BME280;36329;48.816;44.624;2022-09-01T03:19:16;100442;;;24.8;46.2
49583;BME280;36329;48.816;44.624;2022-09-01T03:22:17;100445;;;24.9;46.6
49583;BME280;36329;48.816;44.624;2022-09-01T03:25:19;100444;;;25;46.5
49583;BME280;36329;48.816;44.624;2022-09-01T03:28:21;100453;;;25;46.7
49583;BME280;36329;48.816;44.624;2022-09-01T03:31:22;100454;;;25;47
49583;BME280;36329;48.816;44.624;2022-09-01T03:34:24;100453;;;25.1;47.4
49583;BME280;36329;48.816;44.624;2022-09-01T03:37:25;100462;;;25.3;47.2
49583;BME280;36329;48.816;44.624;2022-09-01T03:40:29;100461;;;25.5;47.5
49583;BME280;36329;48.816;44.624;2022-09-01T03:43:32;100454;;;25.3;47.9
49583;BME280;36329;48.816;44.624;2022-09-01T03:46:34;100454;;;25.5;47.5
49583;BME280;36329;48.816;44.624;2022-09-01T03:49:36;100454;;;25.5;47.5
49583;BME280;36329;48.816;44.624;2022-09-01T03:52:38;100458;;;25.7;47.3
49583;BME280;36329;48.816;44.624;2022-09-01T03:55:40;100458;;;25.7;47.8
49583;BME280;36329;48.816;44.624;2022-09-01T03:58:42;100450;;;25.6;48.5
49583;BME280;36329;48.816;44.624;2022-09-01T04:01:44;100455;;;26;47.9
49583;BME280;36329;48.816;44.624;2022-09-01T04:04:45;100460;;;25.9;49.1
49583;BME280;36329;48.816;44.624;2022-09-01T04:07:47;100466;;;26;49.1
49583;BME280;36329;48.816;44.624;2022-09-01T04:10:52;100454;;;26;50.6
49583;BME280;36329;48.816;44.624;2022-09-01T04:13:54;100457;;;26.1;50.2
49583;BME280;36329;48.816;44.624;2022-09-01T04:17:01;100459;;;26.2;51.2
49583;BME280;36329;48.816;44.624;2022-09-01T04:20:04;100461;;;26.4;50.3
49583;BME280;36329;48.816;44.624;2022-09-01T04:23:06;100456;;;26.5;50.4
49583;BME280;36329;48.816;44.624;2022-09-01T04:26:09;100450;;;26.7;50.8
49583;BME280;36329;48.816;44.624;2022-09-01T04:29:11;100452;;;26.9;50.5
49583;BME280;36329;48.816;44.624;2022-09-01T04:32:13;100455;;;26.8;49.9
49583;BME280;36329;48.816;44.624;2022-09-01T04:35:15;100448;;;26.8;49.9
49583;BME280;36329;48.816;44.624;2022-09-01T04:38:16;100441;;;26.6;49.9
49583;BME280;36329;48.816;44.624;2022-09-01T04:41:18;100454;;;26.7;49.3
49583;BME280;36329;48.816;44.624;2022-09-01T04:44:19;100457;;;27.1;48.6
49583;BME280;36329;48.816;44.624;2022-09-01T04:47:22;100445;;;27.2;48
49583;BME280;36329;48.816;44.624;2022-09-01T04:50:24;100445;;;27;47.2
49583;BME280;36329;48.816;44.624;2022-09-01T04:53:25;100442;;;27;46.9
49583;BME280;36329;48.816;44.624;2022-09-01T04:56:27;100443;;;27.3;47.2
49583;BME280;36329;48.816;44.624;2022-09-01T04:59:28;100448;;;27.5;46.3
49583;BME280;36329;48.816;44.624;2022-09-01T05:02:31;100448;;;27.5;45.9
49583;BME280;36329;48.816;44.624;2022-09-01T05:05:36;100446;;;27.7;45.5
49583;BME280;36329;48.816;44.624;2022-09-01T05:08:38;100444;;;27.6;45.9
49583;BME280;36329;48.816;44.624;2022-09-01T05:11:40;100444;;;27.3;46.3
49583;BME280;36329;48.816;44.624;2022-09-01T05:14:43;100445;;;27.2;46.5
49583;BME280;36329;48.816;44.624;2022-09-01T05:17:46;100445;;;27.2;46.9
49583;BME280;36329;48.816;44.624;2022-09-01T05:20:49;100446;;;27.5;46.2
49583;BME280;36329;48.816;44.624;2022-09-01T05:23:51;100447;;;27.7;45.8
49583;BME280;36329;48.816;44.624;2022-09-01T05:26:53;100446;;;27.5;46.3
49583;BME280;36329;48.816;44.624;2022-09-01T05:29:55;100453;;;27.9;44.9
49583;BME280;36329;48.816;44.624;2022-09-01T05:32:56;100448;;;28;45
49583;BME280;36329;48.816;44.624;2022-09-01T05:35:59;100447;;;28.2;44.3
49583;BME280;36329;48.816;44.624;2022-09-01T05:39:02;100441;;;28.5;43.4
49583;BME280;36329;48.816;44.624;2022-09-01T05:42:05;100447;;;28.4;43
49583;BME280;36329;48.816;44.624;2022-09-01T05:45:07;100441;;;29;42.4
49583;BME280;36329;48.816;44.624;2022-09-01T05:48:10;100437;;;29;41.9
49583;BME280;36329;48.816;44.624;2022-09-01T05:51:12;100436;;;29;43.6
49583;BME280;36329;48.816;44.624;2022-09-01T05:54:14;100433;;;29.2;41.7
49583;BME280;36329;48.816;44.624;2022-09-01T05:57:15;100432;;;29.3;42.1
49583;BME280;36329;48.816;44.624;2022-09-01T06:00:17;100432;;;29.4;41.6
49583;BME280;36329;48.816;44.624;2022-09-01T06:03:20;100427;;;29.5;41.8
49583;BME280;36329;48.816;44.624;2022-09-01T06:06:23;100431;;;29.6;41.9
49583;BME280;36329;48.816;44.624;2022-09-01T06:09:25;100433;;;29.9;41.7
49583;BME280;36329;48.816;44.624;2022-09-01T06:12:26;100438;;;30;40.8
49583;BME280;36329;48.816;44.624;2022-09-01T06:15:28;100428;;;30.2;40.3
49583;BME280;36329;48.816;44.624;2022-09-01T06:18:30;100434;;;30.3;40
49583;BME280;36329;48.816;44.624;2022-09-01T06:21:33;100437;;;30.5;39.8
49583;BME280;36329;48.816;44.624;2022-09-01T06:24:34;100433;;;30.2;39.9
49583;BME280;36329;48.816;44.624;2022-09-01T06:27:36;100432;;;30.3;39.9
49583;BME280;36329;48.816;44.624;2022-09-01T06:30:38;100430;;;30.5;39.7
49583;BME280;36329;48.816;44.624;2022-09-01T06:33:39;100427;;;31.2;39
49583;BME280;36329;48.816;44.624;2022-09-01T06:36:41;100431;;;31.5;38.4
49583;BME280;36329;48.816;44.624;2022-09-01T06:39:42;100423;;;31.7;37.8
49583;BME280;36329;48.816;44.624;2022-09-01T06:42:46;100429;;;32;37
49583;BME280;36329;48.816;44.624;2022-09-01T06:45:48;100426;;;32.2;37.5
49583;BME280;36329;48.816;44.624;2022-09-01T06:48:49;100426;;;32.4;36.3
49583;BME280;36329;48.816;44.624;2022-09-01T06:51:51;100427;;;32.4;36.4
49583;BME280;36329;48.816;44.624;2022-09-01T06:54:53;100427;;;32.7;35.8
49583;BME280;36329;48.816;44.624;2022-09-01T06:57:54;100425;;;33;35.4
49583;BME280;36329;48.816;44.624;2022-09-01T07:00:56;100422;;;33.1;35
49583;BME280;36329;48.816;44.624;2022-09-01T07:03:58;100423;;;33.2;34.3
49583;BME280;36329;48.816;44.624;2022-09-01T07:07:00;100421;;;33.4;33.8
49583;BME280;36329;48.816;44.624;2022-09-01T07:10:02;100418;;;33.5;33.3
49583;BME280;36329;48.816;44.624;2022-09-01T07:13:04;100412;;;33.7;33.4
49583;BME280;36329;48.816;44.624;2022-09-01T07:16:05;100408;;;33.8;33.2
49583;BME280;36329;48.816;44.624;2022-09-01T07:19:08;100410;;;33.9;32.3
49583;BME280;36329;48.816;44.624;2022-09-01T07:22:10;100405;;;34.2;32
49583;BME280;36329;48.816;44.624;2022-09-01T07:25:12;100407;;;34.4;31.7
49583;BME280;36329;48.816;44.624;2022-09-01T07:28:15;100400;;;34.2;31.2
49583;BME280;36329;48.816;44.624;2022-09-01T07:31:19;100404;;;34.5;30.9
49583;BME280;36329;48.816;44.624;2022-09-01T07:34:21;100397;;;34.9;29.9
49583;BME280;36329;48.816;44.624;2022-09-01T07:37:22;100396;;;34.9;30.4
49583;BME280;36329;48.816;44.624;2022-09-01T07:40:24;100389;;;35.1;29.6
49583;BME280;36329;48.816;44.624;2022-09-01T07:43:25;100380;;;35.3;30.8
49583;BME280;36329;48.816;44.624;2022-09-01T07:46:28;100380;;;35.6;28.8
49583;BME280;36329;48.816;44.624;2022-09-01T07:49:30;100373;;;35.3;30.3
49583;BME280;36329;48.816;44.624;2022-09-01T07:52:32;100374;;;35.3;29.7
49583;BME280;36329;48.816;44.624;2022-09-01T07:55:34;100367;;;35.4;29.7
49583;BME280;36329;48.816;44.624;2022-09-01T07:58:38;100370;;;36;28.3
49583;BME280;36329;48.816;44.624;2022-09-01T08:01:39;100372;;;36.3;27.6
49583;BME280;36329;48.816;44.624;2022-09-01T08:04:41;100369;;;36.5;26.7
49583;BME280;36329;48.816;44.624;2022-09-01T08:07:43;100370;;;36.5;26.3
49583;BME280;36329;48.816;44.624;2022-09-01T08:10:44;100366;;;36.3;26.2
49583;BME280;36329;48.816;44.624;2022-09-01T08:13:46;100363;;;36.7;25.5
49583;BME280;36329;48.816;44.624;2022-09-01T08:16:48;100363;;;36.9;25.5
49583;BME280;36329;48.816;44.624;2022-09-01T08:19:49;100356;;;36.6;24.9
49583;BME280;36329;48.816;44.624;2022-09-01T08:22:52;100352;;;37;25.2
49583;BME280;36329;48.816;44.624;2022-09-01T08:25:53;100345;;;37;26.3
49583;BME280;36329;48.816;44.624;2022-09-01T08:28:55;100347;;;37;26.7
49583;BME280;36329;48.816;44.624;2022-09-01T08:31:56;100341;;;37.3;26.7
49583;BME280;36329;48.816;44.624;2022-09-01T08:34:58;100343;;;37;28.2
49583;BME280;36329;48.816;44.624;2022-09-01T08:38:00;100342;;;36.7;28.4
49583;BME280;36329;48.816;44.624;2022-09-01T08:41:05;100337;;;36.7;27.5
49583;BME280;36329;48.816;44.624;2022-09-01T08:48:13;100331;;;37;25.9
49583;BME280;36329;48.816;44.624;2022-09-01T08:51:22;100324;;;36.9;25.7
49583;BME280;36329;48.816;44.624;2022-09-01T08:54:31;100318;;;37.1;25.3
49583;BME280;36329;48.816;44.624;2022-09-01T08:57:39;100311;;;37.4;25.3
49583;BME280;36329;48.816;44.624;2022-09-01T09:00:44;100308;;;37.3;24.9
49583;BME280;36329;48.816;44.624;2022-09-01T09:03:56;100303;;;37.8;23.5
49583;BME280;36329;48.816;44.624;2022-09-01T09:07:08;100303;;;37.7;24.5
49583;BME280;36329;48.816;44.624;2022-09-01T09:10:17;100298;;;38;21.8
49583;BME280;36329;48.816;44.624;2022-09-01T09:13:24;100306;;;38.4;21.7
49583;BME280;36329;48.816;44.624;2022-09-01T09:16:36;100301;;;38.6;21.4
49583;BME280;36329;48.816;44.624;2022-09-01T09:19:41;100301;;;38.6;21.6
49583;BME280;36329;48.816;44.624;2022-09-01T09:22:45;100291;;;38.5;21.1
49583;BME280;36329;48.816;44.624;2022-09-01T09:25:49;100289;;;38.4;20.7
49583;BME280;36329;48.816;44.624;2022-09-01T09:28:51;100280;;;38.1;21
49583;BME280;36329;48.816;44.624;2022-09-01T09:32:02;100278;;;38.4;21.3
49583;BME280;36329;48.816;44.624;2022-09-01T09:35:16;100285;;;38.6;21.6
49583;BME280;36329;48.816;44.624;2022-09-01T09:38:23;100278;;;38.5;21.4
49583;BME280;36329;48.816;44.624;2022-09-01T09:41:26;100274;;;38.4;21.2
49583;BME280;36329;48.816;44.624;2022-09-01T09:44:30;100275;;;38.3;20.8
49583;BME280;36329;48.816;44.624;2022-09-01T09:47:35;100281;;;38.1;21
49583;BME280;36329;48.816;44.624;2022-09-01T09:50:38;100279;;;38.5;20.6
49583;BME280;36329;48.816;44.624;2022-09-01T09:53:40;100278;;;38.6;20.6
49583;BME280;36329;48.816;44.624;2022-09-01T09:56:42;100280;;;38.6;22.1
49583;BME280;36329;48.816;44.624;2022-09-01T09:59:46;100277;;;38.5;20.9
49583;BME280;36329;48.816;44.624;2022-09-01T10:02:52;100269;;;37.8;21.4
49583;BME280;36329;48.816;44.624;2022-09-01T10:05:55;100267;;;37.9;21.3
49583;BME280;36329;48.816;44.624;2022-09-01T10:08:58;100268;;;37.9;21.6
49583;BME280;36329;48.816;44.624;2022-09-01T10:12:00;100267;;;38;20.9
49583;BME280;36329;48.816;44.624;2022-09-01T10:15:05;100263;;;38.1;21.3
49583;BME280;36329;48.816;44.624;2022-09-01T10:18:11;100266;;;37.9;20.7
49583;BME280;36329;48.816;44.624;2022-09-01T10:21:20;100259;;;37.9;21
49583;BME280;36329;48.816;44.624;2022-09-01T10:24:28;100260;;;37.9;21.2
49583;BME280;36329;48.816;44.624;2022-09-01T10:27:34;100260;;;37.9;20.4
49583;BME280;36329;48.816;44.624;2022-09-01T10:30:40;100259;;;37.7;20.9
49583;BME280;36329;48.816;44.624;2022-09-01T10:33:43;100261;;;37.2;20.7
49583;BME280;36329;48.816;44.624;2022-09-01T10:36:46;100258;;;36.9;21.5
49583;BME280;36329;48.816;44.624;2022-09-01T10:40:12;100250;;;37.6;20.5
49583;BME280;36329;48.816;44.624;2022-09-01T10:43:34;100252;;;37.6;20.3
49583;BME280;36329;48.816;44.624;2022-09-01T10:46:42;100252;;;37.8;20.5
49583;BME280;36329;48.816;44.624;2022-09-01T10:49:57;100255;;;37.6;20
49583;BME280;36329;48.816;44.624;2022-09-01T10:53:02;100242;;;37.5;20.6
49583;BME280;36329;48.816;44.624;2022-09-01T10:56:07;100244;;;37.3;20.3
49583;BME280;36329;48.816;44.624;2022-09-01T10:59:23;100247;;;36.3;21.6
49583;BME280;36329;48.816;44.624;2022-09-01T11:02:25;100245;;;36.2;22.3
49583;BME280;36329;48.816;44.624;2022-09-01T11:08:57;100239;;;35.8;22
49583;BME280;36329;48.816;44.624;2022-09-01T11:12:20;100233;;;35.8;22.6
49583;BME280;36329;48.816;44.624;2022-09-01T11:15:37;100232;;;35.8;21.5
49583;BME280;36329;48.816;44.624;2022-09-01T11:18:39;100230;;;36.4;20.8
49583;BME280;36329;48.816;44.624;2022-09-01T11:21:41;100232;;;36.5;21
49583;BME280;36329;48.816;44.624;2022-09-01T11:25:08;100228;;;36.2;21.5
49583;BME280;36329;48.816;44.624;2022-09-01T11:31:39;100206;;;36.6;20.9
49583;BME280;36329;48.816;44.624;2022-09-01T11:34:44;100203;;;36.6;21.3
49583;BME280;36329;48.816;44.624;2022-09-01T11:38:05;100199;;;35.8;22.3
49583;BME280;36329;48.816;44.624;2022-09-01T11:41:07;100194;;;36.2;21.8
49583;BME280;36329;48.816;44.624;2022-09-01T11:44:12;100194;;;35.9;21.9
49583;BME280;36329;48.816;44.624;2022-09-01T11:47:18;100189;;;36.2;22.1
49583;BME280;36329;48.816;44.624;2022-09-01T11:50:22;100188;;;35.8;21.9
49583;BME280;36329;48.816;44.624;2022-09-01T11:53:26;100179;;;35.7;22.7
49583;BME280;36329;48.816;44.624;2022-09-01T11:56:28;100177;;;36.1;22.3
49583;BME280;36329;48.816;44.624;2022-09-01T11:59:32;100181;;;36;21.8
49583;BME280;36329;48.816;44.624;2022-09-01T12:02:35;100176;;;36;21.8
49583;BME280;36329;48.816;44.624;2022-09-01T12:05:43;100175;;;35.6;22
49583;BME280;36329;48.816;44.624;2022-09-01T12:08:52;100171;;;35.7;20.8
49583;BME280;36329;48.816;44.624;2022-09-01T12:11:55;100170;;;35.5;21
49583;BME280;36329;48.816;44.624;2022-09-01T12:14:57;100165;;;35.5;20.7
49583;BME280;36329;48.816;44.624;2022-09-01T12:18:14;100155;;;35.5;20.9
49583;BME280;36329;48.816;44.624;2022-09-01T12:21:22;100150;;;35.5;20.6
49583;BME280;36329;48.816;44.624;2022-09-01T12:24:24;100145;;;35.7;20.2
49583;BME280;36329;48.816;44.624;2022-09-01T12:27:26;100141;;;35.9;19.8
49583;BME280;36329;48.816;44.624;2022-09-01T12:30:28;100136;;;35.8;19.7
49583;BME280;36329;48.816;44.624;2022-09-01T12:33:31;100127;;;35.8;20.2
49583;BME280;36329;48.816;44.624;2022-09-01T12:36:34;100126;;;35.8;20.1
49583;BME280;36329;48.816;44.624;2022-09-01T12:39:38;100120;;;35.9;20.6
49583;BME280;36329;48.816;44.624;2022-09-01T12:42:48;100112;;;35.8;20.2
49583;BME280;36329;48.816;44.624;2022-09-01T12:45:51;100113;;;35.8;20.2
49583;BME280;36329;48.816;44.624;2022-09-01T12:48:52;100109;;;35.8;20.8
49583;BME280;36329;48.816;44.624;2022-09-01T12:52:11;100105;;;35.7;20.3
49583;BME280;36329;48.816;44.624;2022-09-01T12:55:16;100094;;;35.6;20.3
49583;BME280;36329;48.816;44.624;2022-09-01T12:58:20;100092;;;35.5;20.9
49583;BME280;36329;48.816;44.624;2022-09-01T13:01:26;100085;;;35.5;21.1
49583;BME280;36329;48.816;44.624;2022-09-01T13:04:28;100082;;;35.5;21
49583;BME280;36329;48.816;44.624;2022-09-01T13:07:30;100080;;;35.4;21.6
49583;BME280;36329;48.816;44.624;2022-09-01T13:10:34;100080;;;35.3;21.5
49583;BME280;36329;48.816;44.624;2022-09-01T13:13:37;100076;;;35.3;21.4
49583;BME280;36329;48.816;44.624;2022-09-01T13:16:39;100078;;;35.3;20.8
49583;BME280;36329;48.816;44.624;2022-09-01T13:19:41;100072;;;35.4;21.2
49583;BME280;36329;48.816;44.624;2022-09-01T13:22:43;100078;;;35.3;21.4
49583;BME280;36329;48.816;44.624;2022-09-01T13:25:45;100070;;;35.3;21.4
49583;BME280;36329;48.816;44.624;2022-09-01T13:28:47;100069;;;35.3;22.7
49583;BME280;36329;48.816;44.624;2022-09-01T13:31:48;100067;;;35.2;24.4
49583;BME280;36329;48.816;44.624;2022-09-01T13:34:52;100066;;;35;24.3
49583;BME280;36329;48.816;44.624;2022-09-01T13:37:53;100063;;;34.9;22.2
49583;BME280;36329;48.816;44.624;2022-09-01T13:40:55;100066;;;34.8;21.8
49583;BME280;36329;48.816;44.624;2022-09-01T13:43:57;100056;;;34.9;21.8
49583;BME280;36329;48.816;44.624;2022-09-01T13:46:58;100049;;;34.9;22.5
49583;BME280;36329;48.816;44.624;2022-09-01T13:50:00;100031;;;35;22.6
49583;BME280;36329;48.816;44.624;2022-09-01T13:53:02;100030;;;34.8;23.9
49583;BME280;36329;48.816;44.624;2022-09-01T13:56:04;100030;;;34.7;23.1
49583;BME280;36329;48.816;44.624;2022-09-01T13:59:06;100026;;;34.7;24.3
49583;BME280;36329;48.816;44.624;2022-09-01T14:02:08;100017;;;34.7;23.5
49583;BME280;36329;48.816;44.624;2022-09-01T14:05:09;100025;;;34.6;24
49583;BME280;36329;48.816;44.624;2022-09-01T14:08:12;100027;;;34.5;23.9
49583;BME280;36329;48.816;44.624;2022-09-01T14:11:15;100029;;;34.4;23.2
49583;BME280;36329;48.816;44.624;2022-09-01T14:14:17;100024;;;34.3;23.3
49583;BME280;36329;48.816;44.624;2022-09-01T14:17:19;100027;;;34.3;23.6
49583;BME280;36329;48.816;44.624;2022-09-01T14:20:22;100024;;;34.2;24.3
49583;BME280;36329;48.816;44.624;2022-09-01T14:23:25;100026;;;34.2;24.1
49583;BME280;36329;48.816;44.624;2022-09-01T14:26:26;100022;;;34.1;25.1
49583;BME280;36329;48.816;44.624;2022-09-01T14:29:28;100026;;;33.9;24.5
49583;BME280;36329;48.816;44.624;2022-09-01T14:32:29;100020;;;33.8;24.9
49583;BME280;36329;48.816;44.624;2022-09-01T14:35:31;100014;;;33.8;25.1
49583;BME280;36329;48.816;44.624;2022-09-01T14:38:33;100016;;;33.7;24.6
49583;BME280;36329;48.816;44.624;2022-09-01T14:41:35;100014;;;33.7;28.7
49583;BME280;36329;48.816;44.624;2022-09-01T14:44:37;100012;;;33.6;27.2
49583;BME280;36329;48.816;44.624;2022-09-01T14:47:38;100010;;;33.6;25.9
49583;BME280;36329;48.816;44.624;2022-09-01T14:50:42;100003;;;33.6;26.2
49583;BME280;36329;48.816;44.624;2022-09-01T14:53:43;100003;;;33.5;25.7
49583;BME280;36329;48.816;44.624;2022-09-01T14:56:46;100005;;;33.3;28.9
49583;BME280;36329;48.816;44.624;2022-09-01T14:59:47;100010;;;33.3;27.6
49583;BME280;36329;48.816;44.624;2022-09-01T15:02:49;100007;;;33.2;27.8
49583;BME280;36329;48.816;44.624;2022-09-01T15:05:51;100001;;;33.2;27.6
49583;BME280;36329;48.816;44.624;2022-09-01T15:08:52;100003;;;33.1;29
49583;BME280;36329;48.816;44.624;2022-09-01T15:11:54;100004;;;33;28.4
49583;BME280;36329;48.816;44.624;2022-09-01T15:14:56;100009;;;33;28.6
49583;BME280;36329;48.816;44.624;2022-09-01T15:17:59;100010;;;32.8;28
49583;BME280;36329;48.816;44.624;2022-09-01T15:21:01;100009;;;32.9;27.8
49583;BME280;36329;48.816;44.624;2022-09-01T15:24:05;100003;;;33;26.8
49583;BME280;36329;48.816;44.624;2022-09-01T15:27:07;99994;;;33.1;27
49583;BME280;36329;48.816;44.624;2022-09-01T15:30:09;99993;;;33;27.6
49583;BME280;36329;48.816;44.624;2022-09-01T15:33:12;99995;;;32.9;29
49583;BME280;36329;48.816;44.624;2022-09-01T15:36:16;99999;;;32.8;28.5
49583;BME280;36329;48.816;44.624;2022-09-01T15:39:18;100002;;;32.7;29.3
49583;BME280;36329;48.816;44.624;2022-09-01T15:42:19;100003;;;32.7;29.3
49583;BME280;36329;48.816;44.624;2022-09-01T15:45:22;100001;;;32.6;31.2
49583;BME280;36329;48.816;44.624;2022-09-01T15:48:25;100007;;;32.5;32.4
49583;BME280;36329;48.816;44.624;2022-09-01T15:51:30;100019;;;32.5;27.3
49583;BME280;36329;48.816;44.624;2022-09-01T15:54:36;100029;;;32.5;30.9
49583;BME280;36329;48.816;44.624;2022-09-01T15:57:38;100034;;;32.4;32.9
49583;BME280;36329;48.816;44.624;2022-09-01T16:00:41;100039;;;32.7;29.7
49583;BME280;36329;48.816;44.624;2022-09-01T16:03:43;100056;;;32.5;28.1
49583;BME280;36329;48.816;44.624;2022-09-01T16:06:45;100052;;;32.9;26.6
49583;BME280;36329;48.816;44.624;2022-09-01T16:09:47;100044;;;32.8;27
49583;BME280;36329;48.816;44.624;2022-09-01T16:12:48;100029;;;32.8;27.4
49583;BME280;36329;48.816;44.624;2022-09-01T16:15:59;100007;;;32.7;27.8
49583;BME280;36329;48.816;44.624;2022-09-01T16:19:14;99995;;;32.6;27.8
49583;BME280;36329;48.816;44.624;2022-09-01T16:22:22;100013;;;32.5;26.8
49583;BME280;36329;48.816;44.624;2022-09-01T16:25:29;100033;;;32.5;27.2
49583;BME280;36329;48.816;44.624;2022-09-01T16:28:32;100057;;;32.4;27.7
49583;BME280;36329;48.816;44.624;2022-09-01T16:31:34;100071;;;32.6;27
49583;BME280;36329;48.816;44.624;2022-09-01T16:34:37;100069;;;32.5;28
49583;BME280;36329;48.816;44.624;2022-09-01T16:37:49;100054;;;32.5;26.7
49583;BME280;36329;48.816;44.624;2022-09-01T16:40:58;100055;;;32.4;27.3
49583;BME280;36329;48.816;44.624;2022-09-01T16:44:10;100056;;;32.5;26.6
49583;BME280;36329;48.816;44.624;2022-09-01T16:47:24;100068;;;32.3;27.4
49583;BME280;36329;48.816;44.624;2022-09-01T16:50:40;100071;;;32.2;27.4
49583;BME280;36329;48.816;44.624;2022-09-01T16:53:53;100062;;;31.9;27.8
49583;BME280;36329;48.816;44.624;2022-09-01T16:57:06;100071;;;31.7;27.7
49583;BME280;36329;48.816;44.624;2022-09-01T17:00:13;100070;;;31.6;28.1
49583;BME280;36329;48.816;44.624;2022-09-01T17:03:18;100095;;;31.5;28.4
49583;BME280;36329;48.816;44.624;2022-09-01T17:06:28;100080;;;31.2;28.9
49583;BME280;36329;48.816;44.624;2022-09-01T17:09:34;100168;;;31.3;29.9